Tiger Beijing — VRNY6 — position and weather

sailwx.info

Track history (hours):
 
Tides and Currents Weather Stations Pressure Air Temp Water Temp Dewpoint Dewpoint Depression Visibility Wind Speed Wind Dir Waves Ship Positions

Tiger Beijing

Last reported at 2017-Oct-17 17:00 UTC. Time now 2017-Oct-17 17:15 UTC.
Position N 60°09' E 026°29'.

Length 200 m; draft 11 m.

Type: Cargo ship. MMSI: 477699200.

Date/timePositionNaut miles runAvg speedWind from/ knotsBaromVisibWave heightAir tempDewpointWater temp
2017-Oct-17 17:00N 60°09' E 026°29'0 0.0
2017-Oct-17 16:30N 60°09' E 026°29'0 0.0
2017-Oct-17 16:00N 60°09' E 026°29'0 0.0
2017-Oct-17 15:30N 60°09' E 026°29'0 0.0
2017-Oct-17 15:00N 60°09' E 026°29'0 0.0
2017-Oct-17 14:30N 60°09' E 026°29'0 0.1
2017-Oct-17 14:00N 60°09' E 026°30'0 0.0
2017-Oct-17 13:30N 60°09' E 026°30'0 0.1
2017-Oct-17 13:00N 60°09' E 026°30'0 0.0
2017-Oct-17 12:30N 60°09' E 026°30'0 0.0
2017-Oct-17 12:00N 60°09' E 026°30'0 0.0
2017-Oct-17 11:30N 60°09' E 026°30'0 0.0
2017-Oct-17 11:00N 60°09' E 026°30'0 0.0
2017-Oct-17 10:30N 60°09' E 026°30'0 0.0
2017-Oct-17 09:57N 60°09' E 026°30'0 0.0
2017-Oct-17 09:30N 60°09' E 026°30'0 0.0
2017-Oct-17 09:00N 60°09' E 026°30'0 0.0
2017-Oct-17 08:30N 60°09' E 026°30'0 0.0
2017-Oct-17 08:00N 60°09' E 026°30'0 0.0
2017-Oct-17 07:30N 60°09' E 026°30'0 0.0
2017-Oct-17 07:00N 60°09' E 026°30'0 0.0
2017-Oct-17 06:30N 60°09' E 026°30'0 0.0
2017-Oct-17 06:00N 60°09' E 026°30'0 0.0
2017-Oct-17 05:30N 60°09' E 026°30'0 0.0
2017-Oct-17 05:00N 60°09' E 026°30'0 0.0
2017-Oct-17 04:30N 60°09' E 026°30'0 0.0
2017-Oct-17 04:00N 60°09' E 026°30'0 0.0
2017-Oct-17 03:15N 60°09' E 026°30'0 0.1
2017-Oct-17 03:00N 60°09' E 026°30'0 0.0
2017-Oct-17 02:30N 60°09' E 026°30'0 0.0
2017-Oct-17 02:00N 60°09' E 026°30'0 0.0
2017-Oct-17 01:30N 60°09' E 026°30'0 0.0
2017-Oct-17 01:00N 60°09' E 026°30'0 0.0
2017-Oct-17 00:30N 60°09' E 026°30'0 0.0
2017-Oct-17 00:00N 60°09' E 026°30'0 0.0
2017-Oct-16 23:30N 60°09' E 026°30'0 0.0
2017-Oct-16 23:00N 60°09' E 026°30'0 0.0
2017-Oct-16 22:30N 60°09' E 026°30'0 0.0
2017-Oct-16 22:00N 60°09' E 026°30'0 0.0
2017-Oct-16 21:30N 60°09' E 026°30'0 0.2
2017-Oct-16 21:00N 60°09' E 026°29'1 1.4
2017-Oct-16 20:30N 60°08' E 026°29'2 3.7
2017-Oct-16 20:00N 60°06' E 026°30'5 9.9
2017-Oct-16 19:30N 60°02' E 026°35'510.6
2017-Oct-16 19:00N 60°01' E 026°45'510.7
2017-Oct-16 18:30N 59°60' E 026°56'510.6
2017-Oct-16 18:00N 60°00' E 027°06'611.4
2017-Oct-16 17:30N 60°03' E 027°16'611.3
2017-Oct-16 17:00N 60°06' E 027°26'611.2
2017-Oct-16 16:30N 60°09' E 027°35'611.0
2017-Oct-16 16:00N 60°12' E 027°45'510.4
2017-Oct-16 15:30N 60°11' E 027°56'511.0
2017-Oct-16 15:00N 60°10' E 028°06'510.7
2017-Oct-16 14:30N 60°08' E 028°17'1110.8
2017-Oct-16 13:30N 60°03' E 028°36'510.9
2017-Oct-16 13:01N 60°03' E 028°47'510.9
2017-Oct-16 12:30N 60°02' E 028°58'510.9
2017-Oct-16 12:01N 60°02' E 029°08'611.1
2017-Oct-16 11:28N 60°02' E 029°20'4 9.3
2017-Oct-16 11:00N 60°02' E 029°29'510.7
2017-Oct-16 10:30N 59°60' E 029°39'5 9.0
2017-Oct-16 09:59N 59°58' E 029°48'510.7
2017-Oct-16 09:30N 59°56' E 029°57'510.0
2017-Oct-16 09:00N 59°54' E 030°06'3 5.7
2017-Oct-16 08:31N 59°53' E 030°11'0 0.2
2017-Oct-16 07:57N 59°53' E 030°11'0 0.0
2017-Oct-16 07:30N 59°53' E 030°11'0 0.0
2017-Oct-16 07:00N 59°53' E 030°11'0 0.0
2017-Oct-16 06:27N 59°53' E 030°11'0 0.0
2017-Oct-16 06:00N 59°53' E 030°11'0 0.0
2017-Oct-16 05:30N 59°53' E 030°11'0 0.0
2017-Oct-16 05:00N 59°53' E 030°11'0 0.0
2017-Oct-16 04:30N 59°53' E 030°11'0 0.0
2017-Oct-16 04:00N 59°53' E 030°11'0 0.0
2017-Oct-16 03:30N 59°53' E 030°11'0 0.0
2017-Oct-16 03:00N 59°53' E 030°11'0 0.0
2017-Oct-16 02:30N 59°53' E 030°11'0 0.0
2017-Oct-16 02:00N 59°53' E 030°11'0 0.0
2017-Oct-16 01:30N 59°53' E 030°11'0 0.0
2017-Oct-16 01:00N 59°53' E 030°11'0 0.0
2017-Oct-16 00:30N 59°53' E 030°11'0 0.0
2017-Oct-16 00:00N 59°53' E 030°11'0 0.0
2017-Oct-15 23:27N 59°53' E 030°11'0 0.0
2017-Oct-15 23:00N 59°53' E 030°11'0 0.0
2017-Oct-15 22:30N 59°53' E 030°11'0 0.0
2017-Oct-15 22:00N 59°53' E 030°11'0 0.0
2017-Oct-15 21:30N 59°53' E 030°11'0 0.0
2017-Oct-15 21:00N 59°53' E 030°11'0 0.0
2017-Oct-15 20:30N 59°53' E 030°11'0 0.0
2017-Oct-15 20:00N 59°53' E 030°11'0 0.0
2017-Oct-15 19:30N 59°53' E 030°11'0 0.0
2017-Oct-15 19:00N 59°53' E 030°11'0 0.0
2017-Oct-15 18:30N 59°53' E 030°11'0 0.0
2017-Oct-15 18:00N 59°53' E 030°11'0 0.0
2017-Oct-15 17:30N 59°53' E 030°11'0 0.0
2017-Oct-15 17:00N 59°53' E 030°11'0 0.0
2017-Oct-15 16:30N 59°53' E 030°11'0 0.0
2017-Oct-15 16:00N 59°53' E 030°11'0 0.0
2017-Oct-15 15:30N 59°53' E 030°11'0 0.0
2017-Oct-15 15:00N 59°53' E 030°11'0 0.0
2017-Oct-15 14:00N 59°53' E 030°11'0 0.0
2017-Oct-15 13:30N 59°53' E 030°11'0 0.0
2017-Oct-15 13:00N 59°53' E 030°11'0 0.0
2017-Oct-15 12:30N 59°53' E 030°11'0 0.0
2017-Oct-15 12:00N 59°53' E 030°11'0 0.0
2017-Oct-15 11:30N 59°53' E 030°11'0 0.0
2017-Oct-15 11:00N 59°53' E 030°11'0 0.0
2017-Oct-15 10:30N 59°53' E 030°11'0 0.0
2017-Oct-15 10:00N 59°53' E 030°11'0 0.0
2017-Oct-15 09:30N 59°53' E 030°11'0 0.0
2017-Oct-15 09:00N 59°53' E 030°11'0 0.0
2017-Oct-15 08:30N 59°53' E 030°11'0 0.0
2017-Oct-15 08:00N 59°53' E 030°11'0 0.0
2017-Oct-15 07:30N 59°53' E 030°11'0 0.0
2017-Oct-15 07:00N 59°53' E 030°11'0 0.0
2017-Oct-15 06:30N 59°53' E 030°11'0 0.0
2017-Oct-15 06:00N 59°53' E 030°11'0 0.0
2017-Oct-15 05:30N 59°53' E 030°11'0 0.0
2017-Oct-15 05:00N 59°53' E 030°11'0 0.0
2017-Oct-15 04:30N 59°53' E 030°11'0 0.0
2017-Oct-15 04:00N 59°53' E 030°11'0 0.0
2017-Oct-15 03:30N 59°53' E 030°11'0 0.0
2017-Oct-15 03:00N 59°53' E 030°11'0 0.0
2017-Oct-15 02:27N 59°53' E 030°11'0 0.0
2017-Oct-15 02:00N 59°53' E 030°11'0 0.0
2017-Oct-15 01:30N 59°53' E 030°11'0 0.0
2017-Oct-15 01:00N 59°53' E 030°11'0 0.0
2017-Oct-15 00:30N 59°53' E 030°11'0 0.0
2017-Oct-15 00:00N 59°53' E 030°11'0 0.0
2017-Oct-14 23:30N 59°53' E 030°11'0 0.0
2017-Oct-14 23:00N 59°53' E 030°11'0 0.0
2017-Oct-14 22:30N 59°53' E 030°11'0 0.0
2017-Oct-14 22:00N 59°53' E 030°11'0 0.0
2017-Oct-14 21:30N 59°53' E 030°11'0 0.0
2017-Oct-14 21:00N 59°53' E 030°11'0 0.0
2017-Oct-14 20:30N 59°53' E 030°11'0 0.0
2017-Oct-14 19:57N 59°53' E 030°11'0 0.0
2017-Oct-14 19:30N 59°53' E 030°11'0 0.0
2017-Oct-14 19:00N 59°53' E 030°11'0 0.0
2017-Oct-14 18:30N 59°53' E 030°11'0 0.0
2017-Oct-14 18:00N 59°53' E 030°11'0 0.0
2017-Oct-14 17:30N 59°53' E 030°11'0 0.0
2017-Oct-14 17:00N 59°53' E 030°11'0 0.0
2017-Oct-14 16:30N 59°53' E 030°11'0 0.0
2017-Oct-14 16:00N 59°53' E 030°11'0 0.0
2017-Oct-14 15:30N 59°53' E 030°11'0 0.0
2017-Oct-14 15:00N 59°53' E 030°11'0 0.0
2017-Oct-14 14:27N 59°53' E 030°11'0 0.0
2017-Oct-14 14:00N 59°53' E 030°11'0 0.0
2017-Oct-14 13:30N 59°53' E 030°11'0 0.0
2017-Oct-14 13:00N 59°53' E 030°11'0 0.0
2017-Oct-14 12:30N 59°53' E 030°11'0 0.0
2017-Oct-14 12:00N 59°53' E 030°11'0 0.0
2017-Oct-14 11:30N 59°53' E 030°11'0 0.0
2017-Oct-14 11:00N 59°53' E 030°11'0 0.0
2017-Oct-14 10:30N 59°53' E 030°11'0 0.0
2017-Oct-14 10:00N 59°53' E 030°11'0 0.0
2017-Oct-14 09:30N 59°53' E 030°11'0 0.0
2017-Oct-14 09:00N 59°53' E 030°11'0 0.0
2017-Oct-14 08:30N 59°53' E 030°11'0 0.0
2017-Oct-14 08:00N 59°53' E 030°11'0 0.0
2017-Oct-14 07:30N 59°53' E 030°11'0 0.0
2017-Oct-14 07:00N 59°53' E 030°11'0 0.0
2017-Oct-14 06:30N 59°53' E 030°11'0 0.0
2017-Oct-14 06:00N 59°53' E 030°11'0 0.0
2017-Oct-14 05:30N 59°53' E 030°11'0 0.0
2017-Oct-14 05:00N 59°53' E 030°11'0 0.0
2017-Oct-14 04:30N 59°53' E 030°11'0 0.0
2017-Oct-14 04:00N 59°53' E 030°11'0 0.0
2017-Oct-14 03:30N 59°53' E 030°11'0 0.0
2017-Oct-14 03:00N 59°53' E 030°11'0 0.0
2017-Oct-14 02:30N 59°53' E 030°11'0 0.0
2017-Oct-14 02:00N 59°53' E 030°11'0 0.0
2017-Oct-14 01:30N 59°53' E 030°11'0 0.0
2017-Oct-14 01:00N 59°53' E 030°11'0 0.0
2017-Oct-14 00:30N 59°53' E 030°11'0 0.0
2017-Oct-14 00:00N 59°53' E 030°11'0 0.0
2017-Oct-13 23:30N 59°53' E 030°11'0 0.0
2017-Oct-13 23:00N 59°53' E 030°11'0 0.0
2017-Oct-13 22:30N 59°53' E 030°11'0 0.0
2017-Oct-13 22:00N 59°53' E 030°11'0 0.0
2017-Oct-13 21:30N 59°53' E 030°11'0 0.0
2017-Oct-13 21:00N 59°53' E 030°11'0 0.0
2017-Oct-13 20:30N 59°53' E 030°11'0 0.0
2017-Oct-13 20:00N 59°53' E 030°11'0 0.0
2017-Oct-13 19:30N 59°53' E 030°11'0 0.0
2017-Oct-13 19:00N 59°53' E 030°11'0 0.0
2017-Oct-13 18:30N 59°53' E 030°11'0 0.0
2017-Oct-13 18:00N 59°53' E 030°11'0 0.0
2017-Oct-13 17:30N 59°53' E 030°11'0 0.0
2017-Oct-13 17:00N 59°53' E 030°11'0 0.0
2017-Oct-13 16:30N 59°53' E 030°11'0 0.0
2017-Oct-13 16:00N 59°53' E 030°11'0 0.0
2017-Oct-13 15:30N 59°53' E 030°11'0 0.0
2017-Oct-13 14:57N 59°53' E 030°11'0 0.0
2017-Oct-13 14:30N 59°53' E 030°11'0 0.0
2017-Oct-13 14:00N 59°53' E 030°11'0 0.0
2017-Oct-13 13:30N 59°53' E 030°11'0 0.0
2017-Oct-13 13:00N 59°53' E 030°11'0 0.0
2017-Oct-13 12:30N 59°53' E 030°11'0 0.0
2017-Oct-13 12:00N 59°53' E 030°11'0 0.0
2017-Oct-13 11:27N 59°53' E 030°11'0 0.0
2017-Oct-13 11:00N 59°53' E 030°11'0 0.0
2017-Oct-13 10:30N 59°53' E 030°11'0 0.0
2017-Oct-13 10:00N 59°53' E 030°11'0 0.0
2017-Oct-13 09:30N 59°53' E 030°11'0 0.0
2017-Oct-13 09:00N 59°53' E 030°11'0 0.0
2017-Oct-13 08:30N 59°53' E 030°11'0 0.0
2017-Oct-13 08:00N 59°53' E 030°11'0 0.0
2017-Oct-13 07:30N 59°53' E 030°11'0 0.0
2017-Oct-13 07:00N 59°53' E 030°11'0 0.0
2017-Oct-13 06:30N 59°53' E 030°11'0 0.0
2017-Oct-13 06:00N 59°53' E 030°11'0 0.0
2017-Oct-13 05:30N 59°53' E 030°11'0 0.0
2017-Oct-13 05:00N 59°53' E 030°11'0 0.0
2017-Oct-13 04:27N 59°53' E 030°11'0 0.1
2017-Oct-13 04:00N 59°53' E 030°12'1 2.8
2017-Oct-13 03:30N 59°53' E 030°09'4 8.5
2017-Oct-13 03:00N 59°55' E 030°01'611.2
2017-Oct-13 02:30N 59°57' E 029°51'5 9.7
2017-Oct-13 02:00N 59°59' E 029°42'611.5
2017-Oct-13 01:30N 60°01' E 029°31'4 7.7
2017-Oct-13 01:00N 60°02' E 029°24'2 3.5
2017-Oct-13 00:30N 60°03' E 029°21'0 0.9
2017-Oct-12 23:58N 60°03' E 029°21'2 0.1
2017-Oct-12 02:17N 60°06' E 029°21'0 0.0
2017-Oct-12 01:53N 60°06' E 029°21'0 0.0
2017-Oct-12 00:53N 60°06' E 029°21'0 0.0
2017-Oct-10 10:28N 60°06' E 029°21'0 0.0
2017-Oct-10 07:16N 60°06' E 029°21'0 0.1
2017-Oct-10 06:34N 60°06' E 029°21'0 0.2
2017-Oct-10 06:13N 60°06' E 029°21'2 1.5
2017-Oct-10 05:04N 60°07' E 029°19'0 2.9
2017-Oct-10 05:00N 60°07' E 029°19'4 6.9
2017-Oct-10 04:30N 60°04' E 029°16'4 8.9
2017-Oct-10 03:59N 60°02' E 029°08'612.3
2017-Oct-10 03:31N 60°02' E 028°56'612.5
2017-Oct-10 03:00N 60°02' E 028°44'612.5
2017-Oct-10 02:31N 60°02' E 028°31'611.6
2017-Oct-10 02:01N 60°05' E 028°21'611.7
2017-Oct-10 01:31N 60°08' E 028°11'612.2
2017-Oct-10 01:00N 60°09' E 027°59'612.1
2017-Oct-10 00:31N 60°11' E 027°47'612.5
2017-Oct-10 00:00N 60°08' E 027°36'612.7
2017-Oct-09 23:31N 60°04' E 027°25'612.6
2017-Oct-09 23:01N 60°01' E 027°14'612.6
2017-Oct-09 22:31N 59°58' E 027°04'611.7
2017-Oct-09 22:00N 59°59' E 026°52'612.8
2017-Oct-09 21:30N 59°59' E 026°39'510.7
2017-Oct-09 21:01N 59°58' E 026°29'611.2
2017-Oct-09 20:30N 59°57' E 026°18'3510.2
2017-Oct-09 17:06N 59°48' E 025°11'110.4
2017-Oct-09 17:00N 59°48' E 025°09'510.5
2017-Oct-09 16:31N 59°47' E 024°59'510.3
2017-Oct-09 16:00N 59°46' E 024°49'510.4
2017-Oct-09 15:31N 59°45' E 024°39'510.1
2017-Oct-09 15:00N 59°44' E 024°29'611.1
2017-Oct-09 14:30N 59°42' E 024°18'5 9.6
2017-Oct-09 14:01N 59°41' E 024°09'611.3
2017-Oct-09 13:31N 59°39' E 023°59'611.4
2017-Oct-09 13:01N 59°37' E 023°48'611.1
2017-Oct-09 12:30N 59°36' E 023°37'611.1
2017-Oct-09 12:00N 59°34' E 023°27'611.4
2017-Oct-09 11:30N 59°32' E 023°16'612.0
2017-Oct-09 11:00N 59°30' E 023°05'612.1
2017-Oct-09 10:30N 59°28' E 022°54'29311.8
2017-Oct-08 09:45N 55°49' E 016°52'312.0
2017-Oct-08 09:30N 55°48' E 016°47'612.0
2017-Oct-08 09:00N 55°47' E 016°37'612.2
2017-Oct-08 08:31N 55°45' E 016°26'612.2
2017-Oct-08 08:00N 55°44' E 016°16'612.1
2017-Oct-08 07:30N 55°42' E 016°05'611.9
2017-Oct-08 07:01N 55°41' E 015°55'611.8
2017-Oct-08 06:30N 55°40' E 015°45'611.7
2017-Oct-08 06:00N 55°38' E 015°35'612.0
2017-Oct-08 05:30N 55°36' E 015°25'612.0
2017-Oct-08 05:01N 55°33' E 015°15'612.2
2017-Oct-08 04:31N 55°31' E 015°06'712.1
2017-Oct-08 03:57N 55°28' E 014°55'712.2
2017-Oct-08 03:23N 55°25' E 014°44'411.8
2017-Oct-08 03:00N 55°22' E 014°37'611.6
2017-Oct-08 02:31N 55°18' E 014°31'611.5
2017-Oct-08 02:00N 55°14' E 014°24'611.3
2017-Oct-08 01:30N 55°10' E 014°16'1912.2
2017-Oct-07 23:57N 55°11' E 013°43'612.4
2017-Oct-07 23:30N 55°11' E 013°33'612.5
2017-Oct-07 23:00N 55°12' E 013°23'612.5
2017-Oct-07 22:30N 55°13' E 013°12'612.6
2017-Oct-07 22:00N 55°14' E 013°01'612.3
2017-Oct-07 21:30N 55°15' E 012°50'611.9
2017-Oct-07 21:00N 55°17' E 012°41'611.3
2017-Oct-07 20:30N 55°23' E 012°39'612.6
2017-Oct-07 20:00N 55°29' E 012°41'612.2
2017-Oct-07 19:30N 55°34' E 012°48'612.3
2017-Oct-07 19:01N 55°38' E 012°55'713.2
2017-Oct-07 18:31N 55°44' E 012°51'713.8
2017-Oct-07 18:00N 55°50' E 012°45'713.4
2017-Oct-07 17:30N 55°57' E 012°43'714.2
2017-Oct-07 17:01N 56°03' E 012°38'  
Track history (hours):
 
Tides and Currents Weather Stations Pressure Air Temp Water Temp Dewpoint Dewpoint Depression Visibility Wind Speed Wind Dir Waves Ship Positions

Tiger Beijing

Last reported at 2017-Oct-17 17:00 UTC. Time now 2017-Oct-17 17:15 UTC.
Position N 60°09' E 026°29'.

Length 200 m; draft 11 m.

Type: Cargo ship. MMSI: 477699200.

Date/timePositionNaut miles runAvg speedWind from/ knotsBaromVisibWave heightAir tempDewpointWater temp
2017-Oct-17 17:00N 60°09' E 026°29'0 0.0
2017-Oct-17 16:30N 60°09' E 026°29'0 0.0
2017-Oct-17 16:00N 60°09' E 026°29'0 0.0
2017-Oct-17 15:30N 60°09' E 026°29'0 0.0
2017-Oct-17 15:00N 60°09' E 026°29'0 0.0
2017-Oct-17 14:30N 60°09' E 026°29'0 0.1
2017-Oct-17 14:00N 60°09' E 026°30'0 0.0
2017-Oct-17 13:30N 60°09' E 026°30'0 0.1
2017-Oct-17 13:00N 60°09' E 026°30'0 0.0
2017-Oct-17 12:30N 60°09' E 026°30'0 0.0
2017-Oct-17 12:00N 60°09' E 026°30'0 0.0
2017-Oct-17 11:30N 60°09' E 026°30'0 0.0
2017-Oct-17 11:00N 60°09' E 026°30'0 0.0
2017-Oct-17 10:30N 60°09' E 026°30'0 0.0
2017-Oct-17 09:57N 60°09' E 026°30'0 0.0
2017-Oct-17 09:30N 60°09' E 026°30'0 0.0
2017-Oct-17 09:00N 60°09' E 026°30'0 0.0
2017-Oct-17 08:30N 60°09' E 026°30'0 0.0
2017-Oct-17 08:00N 60°09' E 026°30'0 0.0
2017-Oct-17 07:30N 60°09' E 026°30'0 0.0
2017-Oct-17 07:00N 60°09' E 026°30'0 0.0
2017-Oct-17 06:30N 60°09' E 026°30'0 0.0
2017-Oct-17 06:00N 60°09' E 026°30'0 0.0
2017-Oct-17 05:30N 60°09' E 026°30'0 0.0
2017-Oct-17 05:00N 60°09' E 026°30'0 0.0
2017-Oct-17 04:30N 60°09' E 026°30'0 0.0
2017-Oct-17 04:00N 60°09' E 026°30'0 0.0
2017-Oct-17 03:15N 60°09' E 026°30'0 0.1
2017-Oct-17 03:00N 60°09' E 026°30'0 0.0
2017-Oct-17 02:30N 60°09' E 026°30'0 0.0
2017-Oct-17 02:00N 60°09' E 026°30'0 0.0
2017-Oct-17 01:30N 60°09' E 026°30'0 0.0
2017-Oct-17 01:00N 60°09' E 026°30'0 0.0
2017-Oct-17 00:30N 60°09' E 026°30'0 0.0
2017-Oct-17 00:00N 60°09' E 026°30'0 0.0
2017-Oct-16 23:30N 60°09' E 026°30'0 0.0
2017-Oct-16 23:00N 60°09' E 026°30'0 0.0
2017-Oct-16 22:30N 60°09' E 026°30'0 0.0
2017-Oct-16 22:00N 60°09' E 026°30'0 0.0
2017-Oct-16 21:30N 60°09' E 026°30'0 0.2
2017-Oct-16 21:00N 60°09' E 026°29'1 1.4
2017-Oct-16 20:30N 60°08' E 026°29'2 3.7
2017-Oct-16 20:00N 60°06' E 026°30'5 9.9
2017-Oct-16 19:30N 60°02' E 026°35'510.6
2017-Oct-16 19:00N 60°01' E 026°45'510.7
2017-Oct-16 18:30N 59°60' E 026°56'510.6
2017-Oct-16 18:00N 60°00' E 027°06'611.4
2017-Oct-16 17:30N 60°03' E 027°16'611.3
2017-Oct-16 17:00N 60°06' E 027°26'611.2
2017-Oct-16 16:30N 60°09' E 027°35'611.0
2017-Oct-16 16:00N 60°12' E 027°45'510.4
2017-Oct-16 15:30N 60°11' E 027°56'511.0
2017-Oct-16 15:00N 60°10' E 028°06'510.7
2017-Oct-16 14:30N 60°08' E 028°17'1110.8
2017-Oct-16 13:30N 60°03' E 028°36'510.9
2017-Oct-16 13:01N 60°03' E 028°47'510.9
2017-Oct-16 12:30N 60°02' E 028°58'510.9
2017-Oct-16 12:01N 60°02' E 029°08'611.1
2017-Oct-16 11:28N 60°02' E 029°20'4 9.3
2017-Oct-16 11:00N 60°02' E 029°29'510.7
2017-Oct-16 10:30N 59°60' E 029°39'5 9.0
2017-Oct-16 09:59N 59°58' E 029°48'510.7
2017-Oct-16 09:30N 59°56' E 029°57'510.0
2017-Oct-16 09:00N 59°54' E 030°06'3 5.7
2017-Oct-16 08:31N 59°53' E 030°11'0 0.2
2017-Oct-16 07:57N 59°53' E 030°11'0 0.0
2017-Oct-16 07:30N 59°53' E 030°11'0 0.0
2017-Oct-16 07:00N 59°53' E 030°11'0 0.0
2017-Oct-16 06:27N 59°53' E 030°11'0 0.0
2017-Oct-16 06:00N 59°53' E 030°11'0 0.0
2017-Oct-16 05:30N 59°53' E 030°11'0 0.0
2017-Oct-16 05:00N 59°53' E 030°11'0 0.0
2017-Oct-16 04:30N 59°53' E 030°11'0 0.0
2017-Oct-16 04:00N 59°53' E 030°11'0 0.0
2017-Oct-16 03:30N 59°53' E 030°11'0 0.0
2017-Oct-16 03:00N 59°53' E 030°11'0 0.0
2017-Oct-16 02:30N 59°53' E 030°11'0 0.0
2017-Oct-16 02:00N 59°53' E 030°11'0 0.0
2017-Oct-16 01:30N 59°53' E 030°11'0 0.0
2017-Oct-16 01:00N 59°53' E 030°11'0 0.0
2017-Oct-16 00:30N 59°53' E 030°11'0 0.0
2017-Oct-16 00:00N 59°53' E 030°11'0 0.0
2017-Oct-15 23:27N 59°53' E 030°11'0 0.0
2017-Oct-15 23:00N 59°53' E 030°11'0 0.0
2017-Oct-15 22:30N 59°53' E 030°11'0 0.0
2017-Oct-15 22:00N 59°53' E 030°11'0 0.0
2017-Oct-15 21:30N 59°53' E 030°11'0 0.0
2017-Oct-15 21:00N 59°53' E 030°11'0 0.0
2017-Oct-15 20:30N 59°53' E 030°11'0 0.0
2017-Oct-15 20:00N 59°53' E 030°11'0 0.0
2017-Oct-15 19:30N 59°53' E 030°11'0 0.0
2017-Oct-15 19:00N 59°53' E 030°11'0 0.0
2017-Oct-15 18:30N 59°53' E 030°11'0 0.0
2017-Oct-15 18:00N 59°53' E 030°11'0 0.0
2017-Oct-15 17:30N 59°53' E 030°11'0 0.0
2017-Oct-15 17:00N 59°53' E 030°11'0 0.0
2017-Oct-15 16:30N 59°53' E 030°11'0 0.0
2017-Oct-15 16:00N 59°53' E 030°11'0 0.0
2017-Oct-15 15:30N 59°53' E 030°11'0 0.0
2017-Oct-15 15:00N 59°53' E 030°11'0 0.0
2017-Oct-15 14:00N 59°53' E 030°11'0 0.0
2017-Oct-15 13:30N 59°53' E 030°11'0 0.0
2017-Oct-15 13:00N 59°53' E 030°11'0 0.0
2017-Oct-15 12:30N 59°53' E 030°11'0 0.0
2017-Oct-15 12:00N 59°53' E 030°11'0 0.0
2017-Oct-15 11:30N 59°53' E 030°11'0 0.0
2017-Oct-15 11:00N 59°53' E 030°11'0 0.0
2017-Oct-15 10:30N 59°53' E 030°11'0 0.0
2017-Oct-15 10:00N 59°53' E 030°11'0 0.0
2017-Oct-15 09:30N 59°53' E 030°11'0 0.0
2017-Oct-15 09:00N 59°53' E 030°11'0 0.0
2017-Oct-15 08:30N 59°53' E 030°11'0 0.0
2017-Oct-15 08:00N 59°53' E 030°11'0 0.0
2017-Oct-15 07:30N 59°53' E 030°11'0 0.0
2017-Oct-15 07:00N 59°53' E 030°11'0 0.0
2017-Oct-15 06:30N 59°53' E 030°11'0 0.0
2017-Oct-15 06:00N 59°53' E 030°11'0 0.0
2017-Oct-15 05:30N 59°53' E 030°11'0 0.0
2017-Oct-15 05:00N 59°53' E 030°11'0 0.0
2017-Oct-15 04:30N 59°53' E 030°11'0 0.0
2017-Oct-15 04:00N 59°53' E 030°11'0 0.0
2017-Oct-15 03:30N 59°53' E 030°11'0 0.0
2017-Oct-15 03:00N 59°53' E 030°11'0 0.0
2017-Oct-15 02:27N 59°53' E 030°11'0 0.0
2017-Oct-15 02:00N 59°53' E 030°11'0 0.0
2017-Oct-15 01:30N 59°53' E 030°11'0 0.0
2017-Oct-15 01:00N 59°53' E 030°11'0 0.0
2017-Oct-15 00:30N 59°53' E 030°11'0 0.0
2017-Oct-15 00:00N 59°53' E 030°11'0 0.0
2017-Oct-14 23:30N 59°53' E 030°11'0 0.0
2017-Oct-14 23:00N 59°53' E 030°11'0 0.0
2017-Oct-14 22:30N 59°53' E 030°11'0 0.0
2017-Oct-14 22:00N 59°53' E 030°11'0 0.0
2017-Oct-14 21:30N 59°53' E 030°11'0 0.0
2017-Oct-14 21:00N 59°53' E 030°11'0 0.0
2017-Oct-14 20:30N 59°53' E 030°11'0 0.0
2017-Oct-14 19:57N 59°53' E 030°11'0 0.0
2017-Oct-14 19:30N 59°53' E 030°11'0 0.0
2017-Oct-14 19:00N 59°53' E 030°11'0 0.0
2017-Oct-14 18:30N 59°53' E 030°11'0 0.0
2017-Oct-14 18:00N 59°53' E 030°11'0 0.0
2017-Oct-14 17:30N 59°53' E 030°11'0 0.0
2017-Oct-14 17:00N 59°53' E 030°11'0 0.0
2017-Oct-14 16:30N 59°53' E 030°11'0 0.0
2017-Oct-14 16:00N 59°53' E 030°11'0 0.0
2017-Oct-14 15:30N 59°53' E 030°11'0 0.0
2017-Oct-14 15:00N 59°53' E 030°11'0 0.0
2017-Oct-14 14:27N 59°53' E 030°11'0 0.0
2017-Oct-14 14:00N 59°53' E 030°11'0 0.0
2017-Oct-14 13:30N 59°53' E 030°11'0 0.0
2017-Oct-14 13:00N 59°53' E 030°11'0 0.0
2017-Oct-14 12:30N 59°53' E 030°11'0 0.0
2017-Oct-14 12:00N 59°53' E 030°11'0 0.0
2017-Oct-14 11:30N 59°53' E 030°11'0 0.0
2017-Oct-14 11:00N 59°53' E 030°11'0 0.0
2017-Oct-14 10:30N 59°53' E 030°11'0 0.0
2017-Oct-14 10:00N 59°53' E 030°11'0 0.0
2017-Oct-14 09:30N 59°53' E 030°11'0 0.0
2017-Oct-14 09:00N 59°53' E 030°11'0 0.0
2017-Oct-14 08:30N 59°53' E 030°11'0 0.0
2017-Oct-14 08:00N 59°53' E 030°11'0 0.0
2017-Oct-14 07:30N 59°53' E 030°11'0 0.0
2017-Oct-14 07:00N 59°53' E 030°11'0 0.0
2017-Oct-14 06:30N 59°53' E 030°11'0 0.0
2017-Oct-14 06:00N 59°53' E 030°11'0 0.0
2017-Oct-14 05:30N 59°53' E 030°11'0 0.0
2017-Oct-14 05:00N 59°53' E 030°11'0 0.0
2017-Oct-14 04:30N 59°53' E 030°11'0 0.0
2017-Oct-14 04:00N 59°53' E 030°11'0 0.0
2017-Oct-14 03:30N 59°53' E 030°11'0 0.0
2017-Oct-14 03:00N 59°53' E 030°11'0 0.0
2017-Oct-14 02:30N 59°53' E 030°11'0 0.0
2017-Oct-14 02:00N 59°53' E 030°11'0 0.0
2017-Oct-14 01:30N 59°53' E 030°11'0 0.0
2017-Oct-14 01:00N 59°53' E 030°11'0 0.0
2017-Oct-14 00:30N 59°53' E 030°11'0 0.0
2017-Oct-14 00:00N 59°53' E 030°11'0 0.0
2017-Oct-13 23:30N 59°53' E 030°11'0 0.0
2017-Oct-13 23:00N 59°53' E 030°11'0 0.0
2017-Oct-13 22:30N 59°53' E 030°11'0 0.0
2017-Oct-13 22:00N 59°53' E 030°11'0 0.0
2017-Oct-13 21:30N 59°53' E 030°11'0 0.0
2017-Oct-13 21:00N 59°53' E 030°11'0 0.0
2017-Oct-13 20:30N 59°53' E 030°11'0 0.0
2017-Oct-13 20:00N 59°53' E 030°11'0 0.0
2017-Oct-13 19:30N 59°53' E 030°11'0 0.0
2017-Oct-13 19:00N 59°53' E 030°11'0 0.0
2017-Oct-13 18:30N 59°53' E 030°11'0 0.0
2017-Oct-13 18:00N 59°53' E 030°11'0 0.0
2017-Oct-13 17:30N 59°53' E 030°11'0 0.0
2017-Oct-13 17:00N 59°53' E 030°11'0 0.0
2017-Oct-13 16:30N 59°53' E 030°11'0 0.0
2017-Oct-13 16:00N 59°53' E 030°11'0 0.0
2017-Oct-13 15:30N 59°53' E 030°11'0 0.0
2017-Oct-13 14:57N 59°53' E 030°11'0 0.0
2017-Oct-13 14:30N 59°53' E 030°11'0 0.0
2017-Oct-13 14:00N 59°53' E 030°11'0 0.0
2017-Oct-13 13:30N 59°53' E 030°11'0 0.0
2017-Oct-13 13:00N 59°53' E 030°11'0 0.0
2017-Oct-13 12:30N 59°53' E 030°11'0 0.0
2017-Oct-13 12:00N 59°53' E 030°11'0 0.0
2017-Oct-13 11:27N 59°53' E 030°11'0 0.0
2017-Oct-13 11:00N 59°53' E 030°11'0 0.0
2017-Oct-13 10:30N 59°53' E 030°11'0 0.0
2017-Oct-13 10:00N 59°53' E 030°11'0 0.0
2017-Oct-13 09:30N 59°53' E 030°11'0 0.0
2017-Oct-13 09:00N 59°53' E 030°11'0 0.0
2017-Oct-13 08:30N 59°53' E 030°11'0 0.0
2017-Oct-13 08:00N 59°53' E 030°11'0 0.0
2017-Oct-13 07:30N 59°53' E 030°11'0 0.0
2017-Oct-13 07:00N 59°53' E 030°11'0 0.0
2017-Oct-13 06:30N 59°53' E 030°11'0 0.0
2017-Oct-13 06:00N 59°53' E 030°11'0 0.0
2017-Oct-13 05:30N 59°53' E 030°11'0 0.0
2017-Oct-13 05:00N 59°53' E 030°11'0 0.0
2017-Oct-13 04:27N 59°53' E 030°11'0 0.1
2017-Oct-13 04:00N 59°53' E 030°12'1 2.8
2017-Oct-13 03:30N 59°53' E 030°09'4 8.5
2017-Oct-13 03:00N 59°55' E 030°01'611.2
2017-Oct-13 02:30N 59°57' E 029°51'5 9.7
2017-Oct-13 02:00N 59°59' E 029°42'611.5
2017-Oct-13 01:30N 60°01' E 029°31'4 7.7
2017-Oct-13 01:00N 60°02' E 029°24'2 3.5
2017-Oct-13 00:30N 60°03' E 029°21'0 0.9
2017-Oct-12 23:58N 60°03' E 029°21'2 0.1
2017-Oct-12 02:17N 60°06' E 029°21'0 0.0
2017-Oct-12 01:53N 60°06' E 029°21'0 0.0
2017-Oct-12 00:53N 60°06' E 029°21'0 0.0
2017-Oct-10 10:28N 60°06' E 029°21'0 0.0
2017-Oct-10 07:16N 60°06' E 029°21'0 0.1
2017-Oct-10 06:34N 60°06' E 029°21'0 0.2
2017-Oct-10 06:13N 60°06' E 029°21'2 1.5
2017-Oct-10 05:04N 60°07' E 029°19'0 2.9
2017-Oct-10 05:00N 60°07' E 029°19'4 6.9
2017-Oct-10 04:30N 60°04' E 029°16'4 8.9
2017-Oct-10 03:59N 60°02' E 029°08'612.3
2017-Oct-10 03:31N 60°02' E 028°56'612.5
2017-Oct-10 03:00N 60°02' E 028°44'612.5
2017-Oct-10 02:31N 60°02' E 028°31'611.6
2017-Oct-10 02:01N 60°05' E 028°21'611.7
2017-Oct-10 01:31N 60°08' E 028°11'612.2
2017-Oct-10 01:00N 60°09' E 027°59'612.1
2017-Oct-10 00:31N 60°11' E 027°47'612.5
2017-Oct-10 00:00N 60°08' E 027°36'612.7
2017-Oct-09 23:31N 60°04' E 027°25'612.6
2017-Oct-09 23:01N 60°01' E 027°14'612.6
2017-Oct-09 22:31N 59°58' E 027°04'611.7
2017-Oct-09 22:00N 59°59' E 026°52'612.8
2017-Oct-09 21:30N 59°59' E 026°39'510.7
2017-Oct-09 21:01N 59°58' E 026°29'611.2
2017-Oct-09 20:30N 59°57' E 026°18'3510.2
2017-Oct-09 17:06N 59°48' E 025°11'110.4
2017-Oct-09 17:00N 59°48' E 025°09'510.5
2017-Oct-09 16:31N 59°47' E 024°59'510.3
2017-Oct-09 16:00N 59°46' E 024°49'510.4
2017-Oct-09 15:31N 59°45' E 024°39'510.1
2017-Oct-09 15:00N 59°44' E 024°29'611.1
2017-Oct-09 14:30N 59°42' E 024°18'5 9.6
2017-Oct-09 14:01N 59°41' E 024°09'611.3
2017-Oct-09 13:31N 59°39' E 023°59'611.4
2017-Oct-09 13:01N 59°37' E 023°48'611.1
2017-Oct-09 12:30N 59°36' E 023°37'611.1
2017-Oct-09 12:00N 59°34' E 023°27'611.4
2017-Oct-09 11:30N 59°32' E 023°16'612.0
2017-Oct-09 11:00N 59°30' E 023°05'612.1
2017-Oct-09 10:30N 59°28' E 022°54'29311.8
2017-Oct-08 09:45N 55°49' E 016°52'312.0
2017-Oct-08 09:30N 55°48' E 016°47'612.0
2017-Oct-08 09:00N 55°47' E 016°37'612.2
2017-Oct-08 08:31N 55°45' E 016°26'612.2
2017-Oct-08 08:00N 55°44' E 016°16'612.1
2017-Oct-08 07:30N 55°42' E 016°05'611.9
2017-Oct-08 07:01N 55°41' E 015°55'611.8
2017-Oct-08 06:30N 55°40' E 015°45'611.7
2017-Oct-08 06:00N 55°38' E 015°35'612.0
2017-Oct-08 05:30N 55°36' E 015°25'612.0
2017-Oct-08 05:01N 55°33' E 015°15'612.2
2017-Oct-08 04:31N 55°31' E 015°06'712.1
2017-Oct-08 03:57N 55°28' E 014°55'712.2
2017-Oct-08 03:23N 55°25' E 014°44'411.8
2017-Oct-08 03:00N 55°22' E 014°37'611.6
2017-Oct-08 02:31N 55°18' E 014°31'611.5
2017-Oct-08 02:00N 55°14' E 014°24'611.3
2017-Oct-08 01:30N 55°10' E 014°16'1912.2
2017-Oct-07 23:57N 55°11' E 013°43'612.4
2017-Oct-07 23:30N 55°11' E 013°33'612.5
2017-Oct-07 23:00N 55°12' E 013°23'612.5
2017-Oct-07 22:30N 55°13' E 013°12'612.6
2017-Oct-07 22:00N 55°14' E 013°01'612.3
2017-Oct-07 21:30N 55°15' E 012°50'611.9
2017-Oct-07 21:00N 55°17' E 012°41'611.3
2017-Oct-07 20:30N 55°23' E 012°39'612.6
2017-Oct-07 20:00N 55°29' E 012°41'612.2
2017-Oct-07 19:30N 55°34' E 012°48'612.3
2017-Oct-07 19:01N 55°38' E 012°55'713.2
2017-Oct-07 18:31N 55°44' E 012°51'713.8
2017-Oct-07 18:00N 55°50' E 012°45'713.4
2017-Oct-07 17:30N 55°57' E 012°43'714.2
2017-Oct-07 17:01N 56°03' E 012°38'  

Dump ship's entire track history